sensor_id;sensor_type;location;lat;lon;timestamp;P1;durP1;ratioP1;P2;durP2;ratioP2
40629;SDS011;26329;40.388;-3.710;2023-06-26T00:10:01;1.15;;;0.40;;
40629;SDS011;26329;40.388;-3.710;2023-06-26T00:20:05;1.23;;;0.70;;
40629;SDS011;26329;40.388;-3.710;2023-06-26T00:30:07;1.45;;;0.60;;
40629;SDS011;26329;40.388;-3.710;2023-06-26T00:40:08;0.63;;;0.40;;
40629;SDS011;26329;40.388;-3.710;2023-06-26T00:50:09;3.60;;;0.82;;
40629;SDS011;26329;40.388;-3.710;2023-06-26T01:00:10;8.90;;;4.15;;
40629;SDS011;26329;40.388;-3.710;2023-06-26T01:10:13;2.78;;;1.33;;
40629;SDS011;26329;40.388;-3.710;2023-06-26T01:20:14;7.57;;;5.28;;
40629;SDS011;26329;40.388;-3.710;2023-06-26T01:30:16;7.45;;;6.03;;
40629;SDS011;26329;40.388;-3.710;2023-06-26T01:40:17;4.72;;;0.88;;
40629;SDS011;26329;40.388;-3.710;2023-06-26T01:50:19;4.00;;;1.23;;
40629;SDS011;26329;40.388;-3.710;2023-06-26T02:00:24;1.05;;;0.90;;
40629;SDS011;26329;40.388;-3.710;2023-06-26T02:10:26;3.83;;;1.50;;
40629;SDS011;26329;40.388;-3.710;2023-06-26T02:20:27;3.88;;;2.67;;
40629;SDS011;26329;40.388;-3.710;2023-06-26T02:30:28;5.60;;;2.88;;
40629;SDS011;26329;40.388;-3.710;2023-06-26T02:40:28;2.03;;;1.65;;
40629;SDS011;26329;40.388;-3.710;2023-06-26T02:50:30;2.45;;;0.80;;
40629;SDS011;26329;40.388;-3.710;2023-06-26T03:00:30;1.40;;;1.13;;
40629;SDS011;26329;40.388;-3.710;2023-06-26T03:10:31;2.80;;;1.30;;
40629;SDS011;26329;40.388;-3.710;2023-06-26T03:20:32;1.33;;;0.90;;
40629;SDS011;26329;40.388;-3.710;2023-06-26T03:30:32;2.80;;;0.80;;
40629;SDS011;26329;40.388;-3.710;2023-06-26T03:40:33;4.43;;;0.95;;
40629;SDS011;26329;40.388;-3.710;2023-06-26T04:00:34;6.57;;;1.40;;
40629;SDS011;26329;40.388;-3.710;2023-06-26T04:20:39;3.13;;;1.50;;
40629;SDS011;26329;40.388;-3.710;2023-06-26T04:31:00;3.83;;;2.30;;
40629;SDS011;26329;40.388;-3.710;2023-06-26T04:41:01;3.00;;;1.90;;
40629;SDS011;26329;40.388;-3.710;2023-06-26T05:01:03;3.13;;;1.35;;
40629;SDS011;26329;40.388;-3.710;2023-06-26T05:11:06;5.25;;;2.00;;
40629;SDS011;26329;40.388;-3.710;2023-06-26T05:21:07;3.10;;;1.20;;
40629;SDS011;26329;40.388;-3.710;2023-06-26T05:31:08;2.03;;;1.13;;
40629;SDS011;26329;40.388;-3.710;2023-06-26T05:41:09;4.22;;;2.05;;
40629;SDS011;26329;40.388;-3.710;2023-06-26T05:51:10;4.57;;;1.83;;
40629;SDS011;26329;40.388;-3.710;2023-06-26T06:01:11;3.45;;;2.30;;
40629;SDS011;26329;40.388;-3.710;2023-06-26T06:11:12;9.10;;;1.83;;
40629;SDS011;26329;40.388;-3.710;2023-06-26T06:21:12;9.87;;;1.80;;
40629;SDS011;26329;40.388;-3.710;2023-06-26T06:31:13;6.80;;;1.83;;
40629;SDS011;26329;40.388;-3.710;2023-06-26T06:41:14;4.23;;;2.10;;
40629;SDS011;26329;40.388;-3.710;2023-06-26T06:51:15;7.85;;;1.88;;
40629;SDS011;26329;40.388;-3.710;2023-06-26T07:01:16;2.53;;;1.10;;
40629;SDS011;26329;40.388;-3.710;2023-06-26T07:11:17;3.25;;;1.10;;
40629;SDS011;26329;40.388;-3.710;2023-06-26T07:21:17;2.97;;;1.17;;
40629;SDS011;26329;40.388;-3.710;2023-06-26T07:31:18;5.03;;;1.15;;
40629;SDS011;26329;40.388;-3.710;2023-06-26T07:41:19;4.90;;;1.23;;
40629;SDS011;26329;40.388;-3.710;2023-06-26T07:51:19;5.38;;;1.00;;
40629;SDS011;26329;40.388;-3.710;2023-06-26T08:01:20;6.07;;;1.38;;
40629;SDS011;26329;40.388;-3.710;2023-06-26T08:11:21;5.80;;;1.90;;
40629;SDS011;26329;40.388;-3.710;2023-06-26T08:21:22;3.45;;;1.00;;
40629;SDS011;26329;40.388;-3.710;2023-06-26T08:31:23;3.50;;;1.00;;
40629;SDS011;26329;40.388;-3.710;2023-06-26T08:41:23;5.05;;;1.08;;
40629;SDS011;26329;40.388;-3.710;2023-06-26T08:51:25;3.85;;;1.30;;
40629;SDS011;26329;40.388;-3.710;2023-06-26T09:01:31;4.78;;;1.10;;
40629;SDS011;26329;40.388;-3.710;2023-06-26T09:11:32;4.80;;;0.90;;
40629;SDS011;26329;40.388;-3.710;2023-06-26T09:21:33;5.45;;;1.10;;
40629;SDS011;26329;40.388;-3.710;2023-06-26T09:31:33;2.67;;;0.70;;
40629;SDS011;26329;40.388;-3.710;2023-06-26T09:41:37;5.60;;;0.98;;
40629;SDS011;26329;40.388;-3.710;2023-06-26T09:51:39;3.10;;;0.80;;
40629;SDS011;26329;40.388;-3.710;2023-06-26T10:01:41;6.47;;;1.20;;
40629;SDS011;26329;40.388;-3.710;2023-06-26T10:21:57;15.25;;;1.73;;
40629;SDS011;26329;40.388;-3.710;2023-06-26T10:32:00;6.45;;;1.23;;
40629;SDS011;26329;40.388;-3.710;2023-06-26T10:42:10;11.05;;;1.48;;
40629;SDS011;26329;40.388;-3.710;2023-06-26T10:52:11;3.92;;;1.17;;
40629;SDS011;26329;40.388;-3.710;2023-06-26T11:02:12;3.90;;;1.75;;
40629;SDS011;26329;40.388;-3.710;2023-06-26T11:12:12;6.53;;;1.40;;
40629;SDS011;26329;40.388;-3.710;2023-06-26T11:22:13;3.75;;;1.50;;
40629;SDS011;26329;40.388;-3.710;2023-06-26T11:32:15;5.75;;;1.33;;
40629;SDS011;26329;40.388;-3.710;2023-06-26T11:42:16;5.03;;;2.13;;
40629;SDS011;26329;40.388;-3.710;2023-06-26T11:52:17;4.85;;;1.80;;
40629;SDS011;26329;40.388;-3.710;2023-06-26T12:02:18;4.25;;;2.00;;
40629;SDS011;26329;40.388;-3.710;2023-06-26T12:12:21;6.68;;;1.90;;
40629;SDS011;26329;40.388;-3.710;2023-06-26T12:22:22;3.72;;;2.53;;
40629;SDS011;26329;40.388;-3.710;2023-06-26T12:32:23;6.38;;;2.15;;
40629;SDS011;26329;40.388;-3.710;2023-06-26T12:42:26;5.70;;;2.60;;
40629;SDS011;26329;40.388;-3.710;2023-06-26T12:52:28;4.90;;;1.88;;
40629;SDS011;26329;40.388;-3.710;2023-06-26T13:02:29;8.00;;;2.70;;
40629;SDS011;26329;40.388;-3.710;2023-06-26T13:12:30;7.60;;;4.75;;
40629;SDS011;26329;40.388;-3.710;2023-06-26T13:22:30;6.63;;;2.67;;
40629;SDS011;26329;40.388;-3.710;2023-06-26T13:32:31;9.35;;;2.80;;
40629;SDS011;26329;40.388;-3.710;2023-06-26T13:42:32;6.15;;;2.85;;
40629;SDS011;26329;40.388;-3.710;2023-06-26T13:52:33;5.80;;;3.00;;
40629;SDS011;26329;40.388;-3.710;2023-06-26T14:02:34;9.55;;;2.17;;
40629;SDS011;26329;40.388;-3.710;2023-06-26T14:12:34;6.70;;;2.17;;
40629;SDS011;26329;40.388;-3.710;2023-06-26T14:22:36;6.90;;;3.28;;
40629;SDS011;26329;40.388;-3.710;2023-06-26T14:32:36;5.72;;;2.25;;
40629;SDS011;26329;40.388;-3.710;2023-06-26T14:42:37;5.93;;;2.47;;
40629;SDS011;26329;40.388;-3.710;2023-06-26T14:52:38;7.15;;;3.50;;
40629;SDS011;26329;40.388;-3.710;2023-06-26T15:02:39;7.25;;;2.20;;
40629;SDS011;26329;40.388;-3.710;2023-06-26T15:12:39;5.18;;;1.77;;
40629;SDS011;26329;40.388;-3.710;2023-06-26T15:22:40;10.87;;;2.10;;
40629;SDS011;26329;40.388;-3.710;2023-06-26T15:32:41;5.13;;;1.60;;
40629;SDS011;26329;40.388;-3.710;2023-06-26T15:42:45;7.35;;;1.60;;
40629;SDS011;26329;40.388;-3.710;2023-06-26T15:52:46;4.68;;;1.70;;
40629;SDS011;26329;40.388;-3.710;2023-06-26T16:02:50;6.85;;;2.00;;
40629;SDS011;26329;40.388;-3.710;2023-06-26T16:12:51;8.88;;;2.20;;
40629;SDS011;26329;40.388;-3.710;2023-06-26T16:22:52;4.25;;;1.15;;
40629;SDS011;26329;40.388;-3.710;2023-06-26T16:32:54;3.40;;;0.57;;
40629;SDS011;26329;40.388;-3.710;2023-06-26T16:42:58;8.00;;;1.15;;
40629;SDS011;26329;40.388;-3.710;2023-06-26T16:52:58;3.83;;;0.60;;
40629;SDS011;26329;40.388;-3.710;2023-06-26T17:02:59;1.83;;;1.50;;
40629;SDS011;26329;40.388;-3.710;2023-06-26T17:13:00;4.65;;;2.03;;
40629;SDS011;26329;40.388;-3.710;2023-06-26T17:23:01;2.60;;;1.75;;
40629;SDS011;26329;40.388;-3.710;2023-06-26T17:33:10;6.18;;;1.85;;
40629;SDS011;26329;40.388;-3.710;2023-06-26T17:43:11;3.25;;;1.77;;
40629;SDS011;26329;40.388;-3.710;2023-06-26T17:53:12;3.45;;;1.85;;
40629;SDS011;26329;40.388;-3.710;2023-06-26T18:03:13;5.55;;;2.10;;
40629;SDS011;26329;40.388;-3.710;2023-06-26T18:13:13;1.85;;;1.75;;
40629;SDS011;26329;40.388;-3.710;2023-06-26T18:23:14;6.70;;;3.05;;
40629;SDS011;26329;40.388;-3.710;2023-06-26T18:33:15;4.75;;;2.25;;
40629;SDS011;26329;40.388;-3.710;2023-06-26T18:43:15;6.45;;;3.97;;
40629;SDS011;26329;40.388;-3.710;2023-06-26T18:53:16;6.07;;;2.00;;
40629;SDS011;26329;40.388;-3.710;2023-06-26T19:03:17;3.50;;;1.48;;
40629;SDS011;26329;40.388;-3.710;2023-06-26T19:13:18;6.95;;;2.80;;
40629;SDS011;26329;40.388;-3.710;2023-06-26T19:23:18;5.35;;;2.25;;
40629;SDS011;26329;40.388;-3.710;2023-06-26T19:33:19;4.63;;;2.78;;
40629;SDS011;26329;40.388;-3.710;2023-06-26T19:43:20;3.45;;;2.50;;
40629;SDS011;26329;40.388;-3.710;2023-06-26T19:53:21;8.88;;;6.35;;
40629;SDS011;26329;40.388;-3.710;2023-06-26T20:03:22;4.65;;;3.78;;
40629;SDS011;26329;40.388;-3.710;2023-06-26T20:13:23;6.30;;;3.35;;
40629;SDS011;26329;40.388;-3.710;2023-06-26T20:23:24;3.70;;;3.40;;
40629;SDS011;26329;40.388;-3.710;2023-06-26T20:33:24;3.45;;;3.00;;
40629;SDS011;26329;40.388;-3.710;2023-06-26T20:43:26;7.43;;;4.00;;
40629;SDS011;26329;40.388;-3.710;2023-06-26T20:53:27;6.75;;;4.35;;
40629;SDS011;26329;40.388;-3.710;2023-06-26T21:03:28;6.32;;;5.00;;
40629;SDS011;26329;40.388;-3.710;2023-06-26T21:13:28;6.65;;;4.72;;
40629;SDS011;26329;40.388;-3.710;2023-06-26T21:23:29;12.40;;;4.97;;
40629;SDS011;26329;40.388;-3.710;2023-06-26T21:33:30;11.32;;;6.00;;
40629;SDS011;26329;40.388;-3.710;2023-06-26T21:43:31;8.50;;;4.03;;
40629;SDS011;26329;40.388;-3.710;2023-06-26T21:53:31;8.40;;;3.63;;
40629;SDS011;26329;40.388;-3.710;2023-06-26T22:03:32;6.55;;;3.13;;
40629;SDS011;26329;40.388;-3.710;2023-06-26T22:13:33;8.98;;;3.58;;
40629;SDS011;26329;40.388;-3.710;2023-06-26T22:23:34;6.47;;;2.75;;
40629;SDS011;26329;40.388;-3.710;2023-06-26T22:33:35;8.55;;;3.83;;
40629;SDS011;26329;40.388;-3.710;2023-06-26T22:43:35;9.88;;;3.22;;
40629;SDS011;26329;40.388;-3.710;2023-06-26T22:53:36;7.78;;;2.58;;
40629;SDS011;26329;40.388;-3.710;2023-06-26T23:03:37;8.32;;;3.72;;
40629;SDS011;26329;40.388;-3.710;2023-06-26T23:13:37;5.18;;;3.58;;
40629;SDS011;26329;40.388;-3.710;2023-06-26T23:23:38;7.25;;;2.78;;
40629;SDS011;26329;40.388;-3.710;2023-06-26T23:33:39;20.50;;;2.92;;
40629;SDS011;26329;40.388;-3.710;2023-06-26T23:43:41;8.52;;;3.67;;
40629;SDS011;26329;40.388;-3.710;2023-06-26T23:53:42;6.15;;;3.50;;
